Language selection

Features

My Weather Profile Weather Topics  | 

Atlantic - Newfoundland: Past 24 Hour Conditions

 

East Chedabucto Bay - 44488

06:00 AM ADT 13 April 2021Buoy position: 45.45N 60.95W
Disclaimer

This table is a summary of hourly weather conditions for the past 24 hours.
Please note that these observations might not always be representative of weather conditions over their associated marine area.

Date / Time
(ADT)
Wind(knots) Wave height(m) Wave period(s) Pressure(kPa) Air tempC) Water tempC)
13 April 2021
6:00 NNE 12 gust 15 1.5 8.1 100.7 4 2
5:00 NE 17 gust 21 1.7 8.0 100.6 4 2
4:00 NE 22 gust 28 1.5 8.0 100.5 5 2
3:00 NNE 19 gust 23 1.1 6.7 100.4 5 2
2:00 NNE 19 gust 22 1.4 11.7 100.4 5 3
1:00 NNE 18 gust 24 1.0 8.2 100.4 5 3
0:00 N 18 gust 24 1.1 8.8 100.4 6 3
12 April 2021
23:00 N 17 gust 24 1.1 9.1 100.4 5 3
22:00 N 12 gust 15 1.3 10.1 100.4 5 3
21:00 NNW 12 gust 14 1.2 9.6 100.5 4 3
20:00 NNW 11 gust 14 1.3 9.8 100.5 5 3
19:00 NNW 12 gust 15 1.4 8.6 100.5 5 3
18:00 NNW 14 gust 17 1.4 7.4 100.5 5 3
17:00 NNW 17 gust 21 1.4 8.5 100.5 6 3
16:00 NNW 14 gust 21 1.7 10.2 100.6 7 3
15:00 WNW 15 gust 19 1.6 9.1 100.7 4 3
14:00 WNW 8 gust 16 1.6 9.6 100.8 5 3
13:00 NE 10 gust 12 1.4 9.8 100.9 4 3
12:00 N 10 gust 14 1.5 8.7 101.0 4 3
11:00 N 12 gust 16 1.5 9.4 101.1 3 3
10:00 NNE 13 gust 15 1.4 7.3 101.1 2 3
9:00 NE 15 gust 17 1.4 7.3 101.0 2 3
8:00 NE 16 gust 19 1.3 7.7 101.0 2 3
7:00 NE 16 gust 19 1.2 6.8 100.9 2 3
6:00 NE 19 gust 23 1.3 7.4 100.8 2 3

Zoom-in to make a selection

Map of Atlantic - Newfoundland marine weather areas Banquereau - 44139 East Chedabucto Bay - 44488 West Chedabucto Bay - 44489 Blanc-Sablon Airport Cap Whittle Chevery Natashquan Airport Heath Point Îles de la Madeleine Airport Miscou Island Eskasoni (First Nations) Grand Étang Ingonish Beach North Mountain St.Paul Island J.A. Douglas McCurdy Sydney Airport Charlottetown Airport East Point North Cape Argentia Bonavista Burgeo Cape Race Corner Brook Daniel's Harbour Englee Ferolle Point La Scie Port aux Basques Rocky Harbour Sagona Island St. Anthony Airport St. John's Int'l Airport St. Lawrence Stephenville Airport Twillingate Winterland Branch Hill Wreckhouse Grates Cove Pool's Island Marticot Island Long Pond Cartwright Airport Mary's Harbour
Legend:
buoy Buoy
land station Land Station

Atlantic - Newfoundland Area

Another Region

What we are doing

Date modified: